New Nickerie, Suriname
Current Conditions -  °F | °C
As of 3:00 PM on Tuesday 27 Jan 2015 (Local Time) from SMZO Reporting Station
Scattered Clouds Scattered Clouds  
Wind Chill: 84°   Ceiling: Unl
Heat Index: 90°   Visibility: 6mi
Dew Point: 72°   Wind: 20mph
Humidity: 66%   Direction: 20°NNE
Pressure: 29.88"   Gusts: 35mph
Location:  5.82°N, 55.18°W
Report Text: SMZO 271800Z 02017G30KT 9999 FEW018CB SCT025 29/22 Q1012 TEMPOTL1820 3000 SHRA BECMG FM1820 05012KT
Loading
Personal Weather Stations






























Interactive Weather Map New forecast layout! Learn more

10-Day Weather Forecast

Advertisements
Track Severe Weather on mobile